Assateague Island Natl Seashore, Maryland
Current Conditions -  °F | °C
As of 8:53 AM on Thursday 29 Jan 2015 (Local Time) from KOXB Reporting Station
Clear Clear  
Wind Chill: 24°   Ceiling: Unl
Heat Index: 29°   Visibility: 10mi
Dew Point: 14°   Wind: 5mph
Humidity: 54%   Direction: 360°N
Pressure: 30.35"   Gusts: NA
Location:  38.12°N, 75.19°W
Report Text: KOXB 291353Z AUTO 36004KT 10SM CLR M02/M10 A3035 RMK AO2 SLP276 T10171100 TSNO
Loading
Personal Weather Stations






























Interactive Weather Map New forecast layout! Learn more

10-Day Weather Forecast

Advertisements
Track Severe Weather on mobile